Ivanka — T8A2606 — position and weather

sailwx.info

Track history (hours):
 
Tides and Currents Weather Stations Pressure Air Temp Water Temp Dewpoint Dewpoint Depression Visibility Wind Speed Wind Dir Waves Ship Positions

Ivanka

Last reported at 2017-Sep-21 03:18 UTC. Time now 2017-Sep-25 09:59 UTC.
Position N 33°45' E 033°22'.

Length 98 m; draft 6.3 m.

Type: Cargo ship. MMSI: 511520000.

Date/timePositionNaut miles runAvg speedWind from/ knotsBaromVisibWave heightAir tempDewpointWater temp
2017-Sep-21 03:18N 33°45' E 033°22'3 8.2
2017-Sep-21 02:57N 33°44' E 033°19'4 8.3
2017-Sep-21 02:30N 33°42' E 033°15'4 8.3
2017-Sep-21 02:00N 33°40' E 033°11'4 8.2
2017-Sep-21 01:30N 33°37' E 033°07'4 8.3
2017-Sep-21 01:00N 33°35' E 033°03'4 8.3
2017-Sep-21 00:30N 33°33' E 032°59'12 8.2
2017-Sep-20 23:05N 33°25' E 032°48'2 8.1
2017-Sep-20 22:52N 33°24' E 032°46'11 8.1
2017-Sep-20 21:28N 33°18' E 032°35'4 8.2
2017-Sep-20 20:58N 33°15' E 032°31'4 8.2
2017-Sep-20 20:30N 33°13' E 032°27'4 8.3
2017-Sep-20 20:00N 33°11' E 032°23'4 8.2
2017-Sep-20 19:30N 33°08' E 032°19'4 8.0
2017-Sep-20 19:00N 33°06' E 032°16'4 8.1
2017-Sep-20 18:28N 33°03' E 032°11'4 8.3
2017-Sep-20 18:01N 33°01' E 032°08'7 8.1
2017-Sep-20 17:09N 32°56' E 032°02'1 8.0
2017-Sep-20 17:00N 32°55' E 032°01'15 8.4
2017-Sep-20 15:13N 32°47' E 031°46'3 9.2
2017-Sep-20 14:52N 32°45' E 031°43'  
2017-Sep-13 11:26N 31°10' E 029°50'3 6.9
2017-Sep-13 10:58N 31°11' E 029°47'2 0.2
2017-Sep-13 02:11N 31°13' E 029°47'0 0.0
2017-Sep-13 02:00N 31°13' E 029°47'0 0.0
2017-Sep-13 01:04N 31°13' E 029°47'0 0.1
2017-Sep-13 00:59N 31°13' E 029°47'0 0.0
2017-Sep-12 23:21N 31°13' E 029°47'0 0.0
2017-Sep-12 11:54N 31°13' E 029°47'0 0.0
2017-Sep-12 11:28N 31°13' E 029°47'0 0.0
2017-Sep-12 09:37N 31°13' E 029°47'0 0.0
2017-Sep-12 09:28N 31°13' E 029°47'0 0.0
2017-Sep-12 07:32N 31°13' E 029°47'9 0.6
2017-Sep-11 16:17N 31°19' E 029°55'9 1.9
2017-Sep-11 11:34N 31°23' E 030°04'0 0.0
2017-Sep-11 03:47N 31°23' E 030°04'0 0.0
2017-Sep-11 03:22N 31°23' E 030°04'  
Track history (hours):
 
Tides and Currents Weather Stations Pressure Air Temp Water Temp Dewpoint Dewpoint Depression Visibility Wind Speed Wind Dir Waves Ship Positions

Ivanka

Last reported at 2017-Sep-21 03:18 UTC. Time now 2017-Sep-25 09:59 UTC.
Position N 33°45' E 033°22'.

Length 98 m; draft 6.3 m.

Type: Cargo ship. MMSI: 511520000.

Date/timePositionNaut miles runAvg speedWind from/ knotsBaromVisibWave heightAir tempDewpointWater temp
2017-Sep-21 03:18N 33°45' E 033°22'3 8.2
2017-Sep-21 02:57N 33°44' E 033°19'4 8.3
2017-Sep-21 02:30N 33°42' E 033°15'4 8.3
2017-Sep-21 02:00N 33°40' E 033°11'4 8.2
2017-Sep-21 01:30N 33°37' E 033°07'4 8.3
2017-Sep-21 01:00N 33°35' E 033°03'4 8.3
2017-Sep-21 00:30N 33°33' E 032°59'12 8.2
2017-Sep-20 23:05N 33°25' E 032°48'2 8.1
2017-Sep-20 22:52N 33°24' E 032°46'11 8.1
2017-Sep-20 21:28N 33°18' E 032°35'4 8.2
2017-Sep-20 20:58N 33°15' E 032°31'4 8.2
2017-Sep-20 20:30N 33°13' E 032°27'4 8.3
2017-Sep-20 20:00N 33°11' E 032°23'4 8.2
2017-Sep-20 19:30N 33°08' E 032°19'4 8.0
2017-Sep-20 19:00N 33°06' E 032°16'4 8.1
2017-Sep-20 18:28N 33°03' E 032°11'4 8.3
2017-Sep-20 18:01N 33°01' E 032°08'7 8.1
2017-Sep-20 17:09N 32°56' E 032°02'1 8.0
2017-Sep-20 17:00N 32°55' E 032°01'15 8.4
2017-Sep-20 15:13N 32°47' E 031°46'3 9.2
2017-Sep-20 14:52N 32°45' E 031°43'  
2017-Sep-13 11:26N 31°10' E 029°50'3 6.9
2017-Sep-13 10:58N 31°11' E 029°47'2 0.2
2017-Sep-13 02:11N 31°13' E 029°47'0 0.0
2017-Sep-13 02:00N 31°13' E 029°47'0 0.0
2017-Sep-13 01:04N 31°13' E 029°47'0 0.1
2017-Sep-13 00:59N 31°13' E 029°47'0 0.0
2017-Sep-12 23:21N 31°13' E 029°47'0 0.0
2017-Sep-12 11:54N 31°13' E 029°47'0 0.0
2017-Sep-12 11:28N 31°13' E 029°47'0 0.0
2017-Sep-12 09:37N 31°13' E 029°47'0 0.0
2017-Sep-12 09:28N 31°13' E 029°47'0 0.0
2017-Sep-12 07:32N 31°13' E 029°47'9 0.6
2017-Sep-11 16:17N 31°19' E 029°55'9 1.9
2017-Sep-11 11:34N 31°23' E 030°04'0 0.0
2017-Sep-11 03:47N 31°23' E 030°04'0 0.0
2017-Sep-11 03:22N 31°23' E 030°04'  

Dump ship's entire track history